createdAt,value
2019-05-13T00:04:24.115Z,102072.14
2019-05-13T00:06:55.180Z,102077.07
2019-05-13T00:09:20.752Z,102070.96
2019-05-13T00:12:07.157Z,102083.87
2019-05-13T00:14:56.215Z,102086.30
2019-05-13T00:17:44.624Z,102082.08
2019-05-13T00:20:14.095Z,102082.08
2019-05-13T00:22:41.308Z,102078.70
2019-05-13T00:25:27.745Z,102085.59
2019-05-13T00:28:14.566Z,102090.03
2019-05-13T00:33:48.944Z,102084.89
2019-05-13T00:36:17.145Z,102089.80
2019-05-13T00:38:44.759Z,102089.80
2019-05-13T00:41:33.180Z,102083.84
2019-05-13T00:44:00.798Z,102083.84
2019-05-13T00:46:47.891Z,102091.30
2019-05-13T00:49:17.205Z,102091.30
2019-05-13T00:52:04.078Z,102088.78
2019-05-13T00:54:34.156Z,102088.78
2019-05-13T00:59:54.966Z,102075.92
2019-05-13T01:02:41.327Z,102079.12
2019-05-13T01:05:28.047Z,102079.73
2019-05-13T01:08:14.780Z,102079.88
2019-05-13T01:10:45.216Z,102079.88
2019-05-13T01:13:34.053Z,102077.20
2019-05-13T01:16:20.147Z,102077.91
2019-05-13T01:19:06.540Z,102078.55
2019-05-13T01:21:34.608Z,102078.55
2019-05-13T01:24:03.970Z,102077.91
2019-05-13T01:26:33.908Z,102081.17
2019-05-13T01:29:23.818Z,102075.19
2019-05-13T01:34:25.730Z,102071.95
2019-05-13T01:37:13.275Z,102088.82
2019-05-13T01:39:43.600Z,102088.82
2019-05-13T01:42:29.507Z,102075.00
2019-05-13T01:44:57.527Z,102079.97
2019-05-13T01:47:44.364Z,102065.68
2019-05-13T01:53:00.031Z,102067.09
2019-05-13T01:55:46.459Z,102066.39
2019-05-13T01:58:14.704Z,102066.39
2019-05-13T02:00:55.852Z,102077.86
2019-05-13T02:03:33.896Z,102072.73
2019-05-13T02:06:03.823Z,102072.73
2019-05-13T02:08:33.668Z,102070.63
2019-05-13T02:11:20.132Z,102076.48
2019-05-13T02:14:06.576Z,102085.59
2019-05-13T02:16:53.614Z,102080.48
2019-05-13T02:22:14.950Z,102076.02
2019-05-13T02:24:44.510Z,102080.50
2019-05-13T02:27:34.470Z,102088.44
2019-05-13T02:30:21.756Z,102096.35
2019-05-13T02:33:08.465Z,102100.30
2019-05-13T02:35:54.873Z,102106.52
2019-05-13T02:38:42.747Z,102113.19
2019-05-13T02:43:45.528Z,102115.84
2019-05-13T02:46:13.988Z,102118.05
2019-05-13T02:48:42.620Z,102115.06
2019-05-13T02:51:12.541Z,102115.06
2019-05-13T02:53:59.297Z,102113.81
2019-05-13T02:56:45.658Z,102110.31
2019-05-13T02:59:33.717Z,102108.58
2019-05-13T03:04:53.241Z,102116.12
2019-05-13T03:07:42.669Z,102117.16
2019-05-13T03:10:32.894Z,102124.75
2019-05-13T03:12:59.782Z,102123.93
2019-05-13T03:20:52.975Z,102125.36
2019-05-13T03:23:22.752Z,102125.36
2019-05-13T03:25:49.512Z,102127.95
2019-05-13T03:28:36.222Z,102126.22
2019-05-13T03:34:14.968Z,102121.97
2019-05-13T03:36:44.217Z,102121.97
2019-05-13T03:39:27.105Z,102131.70
2019-05-13T03:45:03.077Z,102137.43
2019-05-13T03:50:16.085Z,102137.12
2019-05-13T03:58:08.634Z,102150.23
2019-05-13T04:00:55.040Z,102154.16
2019-05-13T04:03:44.071Z,102162.46
2019-05-13T04:06:13.566Z,102162.46
2019-05-13T04:09:19.532Z,102160.68
2019-05-13T04:11:47.480Z,102161.52
2019-05-13T04:17:23.979Z,102171.98
2019-05-13T04:20:12.356Z,102169.34
2019-05-13T04:22:38.219Z,102169.34
2019-05-13T04:25:24.924Z,102175.80
2019-05-13T04:28:13.350Z,102171.80
2019-05-13T04:31:02.441Z,102169.52
2019-05-13T04:33:47.782Z,102169.81
2019-05-13T04:44:13.101Z,102163.05
2019-05-13T04:46:43.405Z,102165.06
2019-05-13T04:49:32.317Z,102165.06
2019-05-13T04:51:58.492Z,102174.02
2019-05-13T04:54:44.913Z,102172.87
2019-05-13T04:57:12.571Z,102167.81
2019-05-13T04:59:58.968Z,102171.79
2019-05-13T05:02:36.578Z,102171.79
2019-05-13T05:05:14.677Z,102180.77
2019-05-13T05:07:42.297Z,102180.57
2019-05-13T05:10:22.218Z,102181.63
2019-05-13T05:12:42.525Z,102184.47
2019-05-13T05:15:28.579Z,102186.09
2019-05-13T05:17:56.201Z,102186.09
2019-05-13T05:20:23.914Z,102186.20
2019-05-13T05:23:11.174Z,102184.56
2019-05-13T05:28:44.767Z,102192.30
2019-05-13T05:31:12.411Z,102188.87
2019-05-13T05:33:58.808Z,102184.48
2019-05-13T05:39:18.298Z,102192.41
2019-05-13T05:41:46.031Z,102192.41
2019-05-13T05:44:13.626Z,102185.63
2019-05-13T05:46:42.730Z,102185.63
2019-05-13T05:49:12.684Z,102181.50
2019-05-13T05:51:41.896Z,102179.49
2019-05-13T05:54:12.167Z,102174.66
2019-05-13T05:56:45.143Z,102175.27
2019-05-13T05:59:15.194Z,102175.27
2019-05-13T06:01:43.171Z,102174.66
2019-05-13T06:04:12.699Z,102166.85
2019-05-13T06:06:41.520Z,102166.85
2019-05-13T06:09:12.341Z,102174.91
2019-05-13T06:11:41.737Z,102172.95
2019-05-13T06:14:11.293Z,102172.95
2019-05-13T06:16:38.900Z,102172.54
2019-05-13T06:19:06.544Z,102174.02
2019-05-13T06:21:34.146Z,102177.53
2019-05-13T06:24:02.866Z,102176.52
2019-05-13T06:26:31.373Z,102181.80
2019-05-13T06:29:02.804Z,102181.80
2019-05-13T06:31:32.288Z,102177.50
2019-05-13T06:34:01.907Z,102179.27
2019-05-13T06:36:31.456Z,102175.66
2019-05-13T06:38:58.487Z,102177.46
2019-05-13T06:41:26.094Z,102177.46
2019-05-13T06:43:53.996Z,102177.91
2019-05-13T06:46:21.935Z,102169.93
2019-05-13T06:48:51.939Z,102169.93
2019-05-13T06:51:18.920Z,102166.48
2019-05-13T06:53:46.541Z,102161.66
2019-05-13T06:56:14.522Z,102162.11
2019-05-13T06:58:42.096Z,102157.05
2019-05-13T07:01:11.550Z,102161.01
2019-05-13T07:03:41.835Z,102161.01
2019-05-13T07:06:12.358Z,102163.02
2019-05-13T07:08:42.044Z,102163.02
2019-05-13T07:11:20.449Z,102169.14
2019-05-13T07:13:39.322Z,102165.94
2019-05-13T07:16:06.962Z,102169.09
2019-05-13T07:18:35.152Z,102169.09
2019-05-13T07:21:02.745Z,102171.38
2019-05-13T07:23:31.855Z,102174.09
2019-05-13T07:26:01.677Z,102171.75
2019-05-13T07:28:32.480Z,102172.36
2019-05-13T07:31:02.162Z,102165.23
2019-05-13T07:33:32.566Z,102165.23
2019-05-13T07:36:02.774Z,102163.77
2019-05-13T07:38:32.381Z,102156.75
2019-05-13T07:41:03.119Z,102155.91
2019-05-13T07:43:42.489Z,102159.81
2019-05-13T07:46:09.140Z,102158.09
2019-05-13T07:48:37.124Z,102155.67
2019-05-13T07:51:05.181Z,102154.80
2019-05-13T07:53:32.913Z,102156.84
2019-05-13T07:56:02.575Z,102156.84
2019-05-13T07:58:34.389Z,102154.19
2019-05-13T08:01:02.224Z,102155.56
2019-05-13T08:03:31.544Z,102155.00
2019-05-13T08:06:01.976Z,102155.00
2019-05-13T08:08:32.195Z,102155.07
2019-05-13T08:11:01.181Z,102157.81
2019-05-13T08:13:28.387Z,102161.43
2019-05-13T08:15:56.059Z,102154.89
2019-05-13T08:18:23.943Z,102150.17
2019-05-13T08:20:52.433Z,102150.17
2019-05-13T08:23:21.671Z,102155.58
2019-05-13T08:25:51.622Z,102155.44
2019-05-13T08:28:19.258Z,102155.19
2019-05-13T08:30:51.649Z,102155.19
2019-05-13T08:33:22.465Z,102152.03
2019-05-13T08:35:56.499Z,102155.77
2019-05-13T08:38:22.994Z,102155.77
2019-05-13T08:40:51.262Z,102160.40
2019-05-13T08:43:18.910Z,102158.49
2019-05-13T08:45:46.507Z,102152.80
2019-05-13T08:48:17.196Z,102154.72
2019-05-13T08:50:47.429Z,102154.69
2019-05-13T08:53:15.014Z,102158.94
2019-05-13T08:55:43.157Z,102166.55
2019-05-13T08:58:12.542Z,102166.55
2019-05-13T09:00:41.444Z,102156.44
2019-05-13T09:03:12.034Z,102156.44
2019-05-13T09:05:41.342Z,102153.91
2019-05-13T09:08:08.291Z,102153.14
2019-05-13T09:10:36.136Z,102155.57
2019-05-13T09:13:03.792Z,102152.31
2019-05-13T09:15:34.013Z,102142.23
2019-05-13T09:18:03.935Z,102142.23
2019-05-13T09:20:32.321Z,102139.83
2019-05-13T09:23:02.071Z,102143.41
2019-05-13T09:25:31.864Z,102138.13
2019-05-13T09:27:58.767Z,102143.10
2019-05-13T09:30:27.358Z,102143.10
2019-05-13T09:32:55.426Z,102138.69
2019-05-13T09:35:23.028Z,102138.69
2019-05-13T09:37:51.571Z,102140.59
2019-05-13T09:40:22.216Z,102142.28
2019-05-13T09:42:52.083Z,102138.81
2019-05-13T09:45:18.086Z,102138.81
2019-05-13T09:47:45.987Z,102135.09
2019-05-13T09:50:28.597Z,102135.09
2019-05-13T09:52:43.346Z,102143.30
2019-05-13T09:55:26.577Z,102136.74
2019-05-13T09:57:48.061Z,102130.70
2019-05-13T10:00:21.973Z,102130.70
2019-05-13T10:02:56.785Z,102121.96
2019-05-13T10:05:24.725Z,102121.96
2019-05-13T10:07:58.824Z,102124.56
2019-05-13T10:10:26.415Z,102124.42
2019-05-13T10:13:08.021Z,102112.67
2019-05-13T10:15:24.918Z,102112.67
2019-05-13T10:17:52.726Z,102109.66
2019-05-13T10:20:22.689Z,102103.36
2019-05-13T10:22:52.505Z,102103.36
2019-05-13T10:25:19.534Z,102111.03
2019-05-13T10:27:49.084Z,102113.94
2019-05-13T10:30:16.737Z,102108.45
2019-05-13T10:32:46.165Z,102102.06
2019-05-13T10:35:22.807Z,102102.06
2019-05-13T10:37:52.338Z,102100.28
2019-05-13T10:40:23.006Z,102102.92
2019-05-13T10:42:52.367Z,102096.53
2019-05-13T10:45:23.131Z,102104.30
2019-05-13T10:47:52.049Z,102104.30
2019-05-13T10:50:27.431Z,102099.52
2019-05-13T10:52:52.160Z,102092.95
2019-05-13T10:55:36.436Z,102092.95
2019-05-13T10:58:09.209Z,102093.27
2019-05-13T11:00:37.086Z,102088.73
2019-05-13T11:03:05.060Z,102084.63
2019-05-13T11:05:34.852Z,102079.30
2019-05-13T11:08:04.831Z,102075.55
2019-05-13T11:10:32.772Z,102079.58
2019-05-13T11:13:01.573Z,102067.84
2019-05-13T11:15:32.723Z,102067.84
2019-05-13T11:18:03.068Z,102070.47
2019-05-13T11:20:32.553Z,102066.27
2019-05-13T11:23:02.313Z,102058.80
2019-05-13T11:25:32.408Z,102058.49
2019-05-13T11:28:02.189Z,102058.49
2019-05-13T11:30:31.941Z,102060.08
2019-05-13T11:33:02.284Z,102050.02
2019-05-13T11:35:28.467Z,102042.47
2019-05-13T11:37:56.056Z,102042.47
2019-05-13T11:40:23.667Z,102042.11
2019-05-13T11:42:52.649Z,102038.02
2019-05-13T11:45:22.358Z,102035.20
2019-05-13T11:47:51.978Z,102031.16
2019-05-13T11:50:21.572Z,102038.50
2019-05-13T11:52:52.142Z,102033.33
2019-05-13T11:55:17.900Z,102035.67
2019-05-13T11:57:47.733Z,102027.45
2019-05-13T12:00:15.397Z,102025.88
2019-05-13T12:02:50.988Z,102013.30
2019-05-13T12:05:18.422Z,102010.51
2019-05-13T12:07:47.968Z,102011.12
2019-05-13T12:10:15.500Z,102012.27
2019-05-13T12:12:45.103Z,102012.59
2019-05-13T12:15:44.533Z,102002.61
2019-05-13T12:17:42.915Z,102011.00
2019-05-13T12:20:12.183Z,101999.94
2019-05-13T12:22:42.453Z,101996.59
2019-05-13T12:25:09.174Z,101992.34
2019-05-13T12:27:41.922Z,101988.22
2019-05-13T12:30:09.147Z,101983.97
2019-05-13T12:32:36.837Z,101980.69
2019-05-13T12:35:07.565Z,101982.23
2019-05-13T12:37:36.216Z,101992.75
2019-05-13T12:40:03.854Z,101983.63
2019-05-13T12:42:33.841Z,101983.44
2019-05-13T12:45:09.774Z,101979.51
2019-05-13T12:47:30.633Z,101981.28
2019-05-13T12:49:58.489Z,101986.76
2019-05-13T12:52:32.301Z,101986.00
2019-05-13T12:55:02.951Z,101985.94
2019-05-13T12:57:28.805Z,101975.67
2019-05-13T12:59:56.454Z,101975.67
2019-05-13T13:02:32.434Z,101982.44
2019-05-13T13:05:14.124Z,101982.44
2019-05-13T13:07:37.522Z,101977.43
2019-05-13T13:10:02.056Z,101959.99
2019-05-13T13:14:59.150Z,101958.50
2019-05-13T13:17:30.471Z,101960.67
2019-05-13T13:20:06.118Z,101951.55
2019-05-13T13:22:28.085Z,101951.55
2019-05-13T13:24:57.484Z,101950.84
2019-05-13T13:27:57.750Z,101950.20
2019-05-13T13:30:02.742Z,101949.55
2019-05-13T13:32:25.070Z,101944.24
2019-05-13T13:34:54.636Z,101943.62
2019-05-13T13:37:24.859Z,101934.73
2019-05-13T13:39:54.977Z,101934.73
2019-05-13T13:42:21.896Z,101925.13
2019-05-13T13:44:53.921Z,101929.27
2019-05-13T13:47:24.089Z,101928.92
2019-05-13T13:49:53.285Z,101923.96
2019-05-13T13:52:22.734Z,101919.71
2019-05-13T13:55:02.686Z,101921.85
2019-05-13T13:57:25.569Z,101915.58
2019-05-13T14:00:16.171Z,101923.16
2019-05-13T14:02:23.937Z,101910.33
2019-05-13T14:04:53.620Z,101903.53
2019-05-13T14:07:13.386Z,101959.99
2019-05-13T14:07:27.960Z,101900.63
2019-05-13T14:09:51.502Z,101898.77
2019-05-13T14:12:19.147Z,101898.77
2019-05-13T14:14:52.078Z,101902.30
2019-05-13T14:17:16.347Z,101895.23
2019-05-13T14:19:45.814Z,101895.59
2019-05-13T14:22:14.014Z,101892.23
2019-05-13T14:24:43.835Z,101892.23
2019-05-13T14:27:12.192Z,101882.36
2019-05-13T14:29:49.157Z,101881.12
2019-05-13T14:32:12.434Z,101881.12
2019-05-13T14:34:42.079Z,101885.33
2019-05-13T14:37:11.655Z,101885.33
2019-05-13T14:39:41.172Z,101882.67
2019-05-13T14:42:11.596Z,101873.83
2019-05-13T14:44:39.353Z,101880.70
2019-05-13T14:47:08.145Z,101875.39
2019-05-13T14:49:35.611Z,101875.39
2019-05-13T14:52:04.616Z,101866.98
2019-05-13T14:54:32.148Z,101859.78
2019-05-13T14:57:02.161Z,101847.93
2019-05-13T14:59:35.591Z,101850.58
2019-05-13T15:02:03.234Z,101853.28
2019-05-13T15:04:32.937Z,101857.98
2019-05-13T15:07:00.872Z,101857.98
2019-05-13T15:09:28.652Z,101859.25
2019-05-13T15:11:56.308Z,101869.82
2019-05-13T15:14:24.280Z,101866.86
2019-05-13T15:17:02.465Z,101870.50
2019-05-13T15:19:23.978Z,101862.02
2019-05-13T15:21:53.836Z,101860.23
2019-05-13T15:24:21.629Z,101866.70
2019-05-13T15:26:51.553Z,101866.93
2019-05-13T15:29:19.175Z,101856.98
2019-05-13T15:31:52.806Z,101851.78
2019-05-13T15:34:20.435Z,101850.20
2019-05-13T15:36:50.907Z,101849.72
2019-05-13T15:39:17.681Z,101852.67
2019-05-13T15:41:45.426Z,101856.21
2019-05-13T15:44:13.267Z,101853.95
2019-05-13T15:46:41.704Z,101853.33
2019-05-13T15:49:09.554Z,101854.30
2019-05-13T15:51:42.027Z,101837.54
2019-05-13T15:54:15.126Z,101831.89
2019-05-13T15:56:39.594Z,101839.05
2019-05-13T15:59:09.548Z,101836.94
2019-05-13T16:01:42.544Z,101843.33
2019-05-13T16:04:13.486Z,101843.33
2019-05-13T16:06:41.926Z,101833.80
2019-05-13T16:09:11.756Z,101825.63
2019-05-13T16:11:41.246Z,101825.63
2019-05-13T16:14:08.519Z,101827.00
2019-05-13T16:16:36.129Z,101827.00
2019-05-13T16:19:03.722Z,101828.86
2019-05-13T16:21:32.110Z,101828.86
2019-05-13T16:24:04.982Z,101825.23
2019-05-13T16:26:32.541Z,101825.61
2019-05-13T16:29:03.416Z,101823.31
2019-05-13T16:31:36.150Z,101815.51
2019-05-13T16:34:03.764Z,101824.25
2019-05-13T16:36:31.663Z,101823.22
2019-05-13T16:39:01.979Z,101827.63
2019-05-13T16:41:31.605Z,101827.11
2019-05-13T16:43:59.231Z,101833.95
2019-05-13T16:46:31.420Z,101833.95
2019-05-13T16:49:01.180Z,101839.59
2019-05-13T16:51:28.239Z,101836.69
2019-05-13T16:53:55.885Z,101837.22
2019-05-13T16:56:27.926Z,101837.22
2019-05-13T16:58:53.099Z,101835.39
2019-05-13T17:01:21.954Z,101840.52
2019-05-13T17:03:51.543Z,101840.52
2019-05-13T17:06:25.446Z,101834.36
2019-05-13T17:08:56.200Z,101838.45
2019-05-13T17:11:26.572Z,101835.70
2019-05-13T17:13:58.994Z,101833.71
2019-05-13T17:16:27.923Z,101831.56
2019-05-13T17:19:01.247Z,101833.81
2019-05-13T17:21:27.434Z,101839.16
2019-05-13T17:24:01.365Z,101837.58
2019-05-13T17:26:28.470Z,101837.58
2019-05-13T17:29:01.380Z,101840.91
2019-05-13T17:31:27.581Z,101835.61
2019-05-13T17:34:01.311Z,101831.58
2019-05-13T17:36:28.391Z,101831.58
2019-05-13T17:39:02.016Z,101832.98
2019-05-13T17:41:29.334Z,101830.87
2019-05-13T17:43:58.812Z,101831.36
2019-05-13T17:46:27.743Z,101820.67
2019-05-13T17:48:55.324Z,101817.20
2019-05-13T17:51:23.292Z,101812.63
2019-05-13T17:53:52.106Z,101812.63
2019-05-13T17:56:21.615Z,101814.41
2019-05-13T17:58:49.305Z,101820.60
2019-05-13T18:01:16.909Z,101812.79
2019-05-13T18:03:44.540Z,101812.79
2019-05-13T18:06:12.544Z,101810.16
2019-05-13T18:08:42.902Z,101799.00
2019-05-13T18:11:11.406Z,101806.47
2019-05-13T18:13:43.700Z,101809.09
2019-05-13T18:16:13.374Z,101814.83
2019-05-13T18:18:46.943Z,101814.83
2019-05-13T18:21:11.925Z,101814.77
2019-05-13T18:23:41.441Z,101816.52
2019-05-13T18:26:08.963Z,101817.30
2019-05-13T18:28:38.880Z,101811.50
2019-05-13T18:31:06.517Z,101811.53
2019-05-13T18:33:34.196Z,101811.48
2019-05-13T18:36:22.330Z,101804.80
2019-05-13T18:41:46.609Z,101812.80
2019-05-13T18:47:07.584Z,101811.81
2019-05-13T18:49:35.193Z,101812.20
2019-05-13T18:52:22.307Z,101811.94
2019-05-13T18:54:51.393Z,101801.31
2019-05-13T18:57:51.805Z,101811.09
2019-05-13T19:03:15.165Z,101812.06
2019-05-13T19:05:43.090Z,101817.05
2019-05-13T19:08:42.893Z,101816.75
2019-05-13T19:11:01.182Z,101822.69
2019-05-13T19:13:48.429Z,101824.48
2019-05-13T19:16:16.024Z,101833.09
2019-05-13T19:18:44.588Z,101834.42
2019-05-13T19:21:12.152Z,101836.14
2019-05-13T19:23:41.902Z,101836.14
2019-05-13T19:26:11.279Z,101839.56
2019-05-13T19:28:38.956Z,101837.33
2019-05-13T19:31:08.635Z,101843.52
2019-05-13T19:33:36.557Z,101843.52
2019-05-13T19:38:57.065Z,101843.62
2019-05-13T19:44:16.592Z,101849.23
2019-05-13T19:46:44.288Z,101848.14
2019-05-13T19:55:08.463Z,101845.32
2019-05-13T19:58:06.851Z,101843.52
2019-05-13T20:03:31.877Z,101840.08
2019-05-13T20:06:21.290Z,101850.33
2019-05-13T20:09:02.019Z,101850.33
2019-05-13T20:11:18.368Z,101848.17
2019-05-13T20:19:50.265Z,101845.42
2019-05-13T20:22:31.395Z,101845.42
2019-05-13T20:25:17.758Z,101846.67
2019-05-13T20:27:45.508Z,101846.67
2019-05-13T20:33:39.856Z,101847.20
2019-05-13T20:36:12.241Z,101847.20
2019-05-13T20:38:40.084Z,101852.30
2019-05-13T20:49:37.375Z,101856.79
2019-05-13T20:52:05.021Z,101856.79
2019-05-13T20:54:32.793Z,101870.20
2019-05-13T20:57:21.555Z,101870.20
2019-05-13T20:59:48.455Z,101870.89
2019-05-13T21:02:34.922Z,101873.18
2019-05-13T21:05:21.870Z,101879.10
2019-05-13T21:18:56.313Z,101885.72
2019-05-13T21:21:45.573Z,101892.62
2019-05-13T21:24:32.072Z,101892.62
2019-05-13T21:27:03.424Z,101894.41
2019-05-13T21:29:51.797Z,101887.69
2019-05-13T21:32:21.201Z,101887.69
2019-05-13T21:35:07.277Z,101895.50
2019-05-13T21:37:34.921Z,101888.51
2019-05-13T21:40:02.605Z,101888.51
2019-05-13T21:42:49.051Z,101893.77
2019-05-13T21:45:35.517Z,101888.14
2019-05-13T21:48:21.998Z,101888.14
2019-05-13T21:50:51.620Z,101898.56
2019-05-13T21:53:38.381Z,101897.33
2019-05-13T21:56:06.105Z,101897.33
2019-05-13T22:01:38.982Z,101904.42
2019-05-13T22:04:12.113Z,101904.42
2019-05-13T22:06:39.205Z,101901.91
2019-05-13T22:09:25.701Z,101900.67
2019-05-13T22:12:12.120Z,101908.02
2019-05-13T22:15:00.638Z,101908.68
2019-05-13T22:17:27.836Z,101908.68
2019-05-13T22:20:14.259Z,101904.23
2019-05-13T22:25:15.298Z,101903.28
2019-05-13T22:28:01.794Z,101902.32
2019-05-13T22:30:33.361Z,101899.00
2019-05-13T22:33:17.575Z,101907.27
2019-05-13T22:35:45.375Z,101904.37
2019-05-13T22:41:18.138Z,101899.66
2019-05-13T22:43:35.573Z,101896.05
2019-05-13T22:46:21.957Z,101892.86
2019-05-13T22:48:51.249Z,101892.86
2019-05-13T22:51:37.782Z,101891.37
2019-05-13T22:54:07.887Z,101893.40
2019-05-13T22:56:54.324Z,101894.18
2019-05-13T22:59:41.617Z,101889.59
2019-05-13T23:02:28.949Z,101893.81
2019-05-13T23:05:17.560Z,101892.11
2019-05-13T23:08:03.955Z,101895.48
2019-05-13T23:10:51.492Z,101892.66
2019-05-13T23:18:59.581Z,101889.29
2019-05-13T23:21:46.037Z,101897.48
2019-05-13T23:24:32.752Z,101893.72
2019-05-13T23:27:21.841Z,101897.43
2019-05-13T23:30:07.575Z,101897.43
2019-05-13T23:32:35.176Z,101896.73
2019-05-13T23:35:21.820Z,101896.95
2019-05-13T23:38:08.112Z,101890.92
2019-05-13T23:40:35.847Z,101890.92
2019-05-13T23:43:22.256Z,101896.45
2019-05-13T23:45:51.116Z,101896.54
2019-05-13T23:51:05.827Z,101896.27
2019-05-13T23:53:33.453Z,101889.05
2019-05-13T23:56:21.795Z,101886.09
2019-05-13T23:58:52.089Z,101886.09
